sensor_id;sensor_type;location;lat;lon;timestamp;pressure;altitude;pressure_sealevel;temperature;humidity
78117;BME280;69042;59.120;37.904;2023-10-31T00:01:03;99262.34;;;0.86;68.85
78117;BME280;69042;59.120;37.904;2023-10-31T00:03:29;99272.63;;;0.87;68.74
78117;BME280;69042;59.120;37.904;2023-10-31T00:05:55;99270.00;;;0.90;69.02
78117;BME280;69042;59.120;37.904;2023-10-31T00:08:22;99271.69;;;0.93;68.59
78117;BME280;69042;59.120;37.904;2023-10-31T00:10:50;99272.53;;;0.93;68.98
78117;BME280;69042;59.120;37.904;2023-10-31T00:13:16;99268.22;;;0.92;68.36
78117;BME280;69042;59.120;37.904;2023-10-31T00:15:43;99259.66;;;0.93;69.20
78117;BME280;69042;59.120;37.904;2023-10-31T00:18:09;99268.19;;;0.97;68.55
78117;BME280;69042;59.120;37.904;2023-10-31T00:20:35;99270.72;;;0.98;69.22
78117;BME280;69042;59.120;37.904;2023-10-31T00:23:02;99271.59;;;0.97;68.87
78117;BME280;69042;59.120;37.904;2023-10-31T00:25:28;99283.53;;;1.01;68.98
78117;BME280;69042;59.120;37.904;2023-10-31T00:27:54;99297.19;;;1.03;68.53
78117;BME280;69042;59.120;37.904;2023-10-31T00:30:21;99302.34;;;1.03;69.09
78117;BME280;69042;59.120;37.904;2023-10-31T00:32:47;99303.25;;;1.01;68.89
78117;BME280;69042;59.120;37.904;2023-10-31T00:35:13;99305.78;;;1.04;68.69
78117;BME280;69042;59.120;37.904;2023-10-31T00:37:41;99295.50;;;1.02;68.62
78117;BME280;69042;59.120;37.904;2023-10-31T00:40:08;99307.56;;;1.00;68.66
78117;BME280;69042;59.120;37.904;2023-10-31T00:42:38;99301.63;;;0.95;68.39
78117;BME280;69042;59.120;37.904;2023-10-31T00:45:06;99308.50;;;0.95;68.79
78117;BME280;69042;59.120;37.904;2023-10-31T00:47:33;99315.34;;;0.96;68.26
78117;BME280;69042;59.120;37.904;2023-10-31T00:50:00;99316.25;;;0.93;68.24
78117;BME280;69042;59.120;37.904;2023-10-31T00:52:26;99324.88;;;0.89;68.93
78117;BME280;69042;59.120;37.904;2023-10-31T00:54:52;99323.28;;;0.82;68.42
78117;BME280;69042;59.120;37.904;2023-10-31T00:57:19;99334.41;;;0.81;68.44
78117;BME280;69042;59.120;37.904;2023-10-31T00:59:45;99342.19;;;0.78;68.66
78117;BME280;69042;59.120;37.904;2023-10-31T01:02:11;99354.22;;;0.76;68.29
78117;BME280;69042;59.120;37.904;2023-10-31T01:04:38;99347.41;;;0.73;68.75
78117;BME280;69042;59.120;37.904;2023-10-31T01:07:04;99350.81;;;0.74;69.08
78117;BME280;69042;59.120;37.904;2023-10-31T01:09:30;99357.66;;;0.75;68.77
78117;BME280;69042;59.120;37.904;2023-10-31T01:11:57;99362.75;;;0.78;69.00
78117;BME280;69042;59.120;37.904;2023-10-31T01:14:23;99371.28;;;0.81;68.83
78117;BME280;69042;59.120;37.904;2023-10-31T01:16:49;99382.34;;;0.87;69.31
78117;BME280;69042;59.120;37.904;2023-10-31T01:19:16;99384.03;;;0.88;68.99
78117;BME280;69042;59.120;37.904;2023-10-31T01:21:42;99399.44;;;0.91;68.94
78117;BME280;69042;59.120;37.904;2023-10-31T01:24:09;99406.31;;;0.90;68.59
78117;BME280;69042;59.120;37.904;2023-10-31T01:26:35;99404.59;;;0.91;69.07
78117;BME280;69042;59.120;37.904;2023-10-31T01:29:02;99410.56;;;0.93;68.99
78117;BME280;69042;59.120;37.904;2023-10-31T01:31:28;99414.81;;;0.95;68.76
78117;BME280;69042;59.120;37.904;2023-10-31T01:33:54;99407.03;;;0.98;69.26
78117;BME280;69042;59.120;37.904;2023-10-31T01:36:27;99407.88;;;1.00;68.48
78117;BME280;69042;59.120;37.904;2023-10-31T01:38:54;99413.78;;;1.06;69.01
78117;BME280;69042;59.120;37.904;2023-10-31T01:41:20;99420.59;;;1.10;69.46
78117;BME280;69042;59.120;37.904;2023-10-31T01:43:47;99417.13;;;1.12;68.70
78117;BME280;69042;59.120;37.904;2023-10-31T01:46:13;99422.19;;;1.18;69.14
78117;BME280;69042;59.120;37.904;2023-10-31T01:48:39;99418.72;;;1.21;68.88
78117;BME280;69042;59.120;37.904;2023-10-31T01:51:06;99432.41;;;1.23;69.06
78117;BME280;69042;59.120;37.904;2023-10-31T01:53:34;99428.97;;;1.24;68.61
78117;BME280;69042;59.120;37.904;2023-10-31T01:56:02;99422.09;;;1.24;68.16
78117;BME280;69042;59.120;37.904;2023-10-31T01:58:36;99426.41;;;1.24;69.19
78117;BME280;69042;59.120;37.904;2023-10-31T02:01:04;99437.47;;;1.28;68.72
78117;BME280;69042;59.120;37.904;2023-10-31T02:03:31;99439.16;;;1.30;68.89
78117;BME280;69042;59.120;37.904;2023-10-31T02:05:59;99450.31;;;1.31;68.86
78117;BME280;69042;59.120;37.904;2023-10-31T02:08:25;99453.75;;;1.30;68.69
78117;BME280;69042;59.120;37.904;2023-10-31T02:10:52;99452.94;;;1.28;68.15
78117;BME280;69042;59.120;37.904;2023-10-31T02:13:19;99453.81;;;1.25;67.89
78117;BME280;69042;59.120;37.904;2023-10-31T02:15:45;99458.97;;;1.25;68.04
78117;BME280;69042;59.120;37.904;2023-10-31T02:18:12;99456.41;;;1.25;68.52
78117;BME280;69042;59.120;37.904;2023-10-31T02:20:39;99454.66;;;1.25;68.86
78117;BME280;69042;59.120;37.904;2023-10-31T02:23:06;99464.06;;;1.28;68.09
78117;BME280;69042;59.120;37.904;2023-10-31T02:25:33;99472.66;;;1.29;68.43
78117;BME280;69042;59.120;37.904;2023-10-31T02:27:59;99479.50;;;1.28;68.42
78117;BME280;69042;59.120;37.904;2023-10-31T02:30:27;99492.44;;;1.23;68.37
78117;BME280;69042;59.120;37.904;2023-10-31T02:32:53;99494.16;;;1.23;68.54
78117;BME280;69042;59.120;37.904;2023-10-31T02:35:20;99483.88;;;1.21;68.10
78117;BME280;69042;59.120;37.904;2023-10-31T02:37:47;99489.91;;;1.20;68.32
78117;BME280;69042;59.120;37.904;2023-10-31T02:40:14;99489.06;;;1.20;68.49
78117;BME280;69042;59.120;37.904;2023-10-31T02:42:40;99493.38;;;1.18;67.98
78117;BME280;69042;59.120;37.904;2023-10-31T02:45:07;99493.41;;;1.16;68.69
78117;BME280;69042;59.120;37.904;2023-10-31T02:47:33;99499.38;;;1.17;68.78
78117;BME280;69042;59.120;37.904;2023-10-31T02:50:00;99506.19;;;1.21;68.08
78117;BME280;69042;59.120;37.904;2023-10-31T02:52:27;99509.63;;;1.21;68.11
78117;BME280;69042;59.120;37.904;2023-10-31T02:54:54;99516.47;;;1.24;67.85
78117;BME280;69042;59.120;37.904;2023-10-31T02:57:21;99515.66;;;1.20;67.80
78117;BME280;69042;59.120;37.904;2023-10-31T02:59:47;99523.44;;;1.17;68.10
78117;BME280;69042;59.120;37.904;2023-10-31T03:02:14;99520.84;;;1.16;68.16
78117;BME280;69042;59.120;37.904;2023-10-31T03:04:40;99523.44;;;1.16;68.32
78117;BME280;69042;59.120;37.904;2023-10-31T03:07:07;99523.44;;;1.16;68.32
78117;BME280;69042;59.120;37.904;2023-10-31T03:09:33;99538.94;;;1.13;68.41
78117;BME280;69042;59.120;37.904;2023-10-31T03:11:59;99543.25;;;1.09;67.99
78117;BME280;69042;59.120;37.904;2023-10-31T03:14:26;99552.72;;;1.06;68.10
78117;BME280;69042;59.120;37.904;2023-10-31T03:16:54;99552.75;;;1.02;68.19
78117;BME280;69042;59.120;37.904;2023-10-31T03:19:20;99549.31;;;1.03;67.89
78117;BME280;69042;59.120;37.904;2023-10-31T03:21:46;99549.31;;;1.03;68.05
78117;BME280;69042;59.120;37.904;2023-10-31T03:24:13;99553.59;;;1.03;68.44
78117;BME280;69042;59.120;37.904;2023-10-31T03:26:39;99566.50;;;1.01;68.15
78117;BME280;69042;59.120;37.904;2023-10-31T03:29:06;99568.25;;;0.99;68.13
78117;BME280;69042;59.120;37.904;2023-10-31T03:31:32;99570.88;;;0.93;68.38
78117;BME280;69042;59.120;37.904;2023-10-31T03:33:58;99601.78;;;0.90;68.43
78117;BME280;69042;59.120;37.904;2023-10-31T03:36:25;99611.25;;;0.85;68.36
78117;BME280;69042;59.120;37.904;2023-10-31T03:38:51;99603.59;;;0.82;68.21
78117;BME280;69042;59.120;37.904;2023-10-31T03:41:17;99586.47;;;0.79;68.42
78117;BME280;69042;59.120;37.904;2023-10-31T03:43:44;99581.34;;;0.78;68.36
78117;BME280;69042;59.120;37.904;2023-10-31T03:46:11;99586.53;;;0.73;67.87
78117;BME280;69042;59.120;37.904;2023-10-31T03:48:37;99591.72;;;0.69;68.42
78117;BME280;69042;59.120;37.904;2023-10-31T03:51:04;99601.22;;;0.64;67.82
78117;BME280;69042;59.120;37.904;2023-10-31T03:53:30;99609.81;;;0.59;68.06
78117;BME280;69042;59.120;37.904;2023-10-31T03:55:59;99615.81;;;0.58;68.20
78117;BME280;69042;59.120;37.904;2023-10-31T03:58:26;99620.94;;;0.58;68.29
78117;BME280;69042;59.120;37.904;2023-10-31T04:00:52;99618.31;;;0.63;68.69
78117;BME280;69042;59.120;37.904;2023-10-31T04:03:18;99602.06;;;0.64;68.59
78117;BME280;69042;59.120;37.904;2023-10-31T04:05:45;99604.63;;;0.66;68.28
78117;BME280;69042;59.120;37.904;2023-10-31T04:08:11;99606.34;;;0.64;68.00
78117;BME280;69042;59.120;37.904;2023-10-31T04:10:37;99608.91;;;0.64;68.23
78117;BME280;69042;59.120;37.904;2023-10-31T04:13:04;99613.22;;;0.60;68.55
78117;BME280;69042;59.120;37.904;2023-10-31T04:15:30;99615.00;;;0.56;68.04
78117;BME280;69042;59.120;37.904;2023-10-31T04:17:56;99628.69;;;0.54;68.34
78117;BME280;69042;59.120;37.904;2023-10-31T04:20:23;99617.63;;;0.50;68.49
78117;BME280;69042;59.120;37.904;2023-10-31T04:22:49;99626.22;;;0.46;68.58
78117;BME280;69042;59.120;37.904;2023-10-31T04:25:15;99640.78;;;0.44;68.45
78117;BME280;69042;59.120;37.904;2023-10-31T04:27:42;99639.94;;;0.44;68.88
78117;BME280;69042;59.120;37.904;2023-10-31T04:30:08;99643.34;;;0.46;68.48
78117;BME280;69042;59.120;37.904;2023-10-31T04:32:35;99656.16;;;0.47;68.91
78117;BME280;69042;59.120;37.904;2023-10-31T04:35:01;99638.19;;;0.47;68.84
78117;BME280;69042;59.120;37.904;2023-10-31T04:37:29;99645.88;;;0.47;68.49
78117;BME280;69042;59.120;37.904;2023-10-31T04:39:55;99649.34;;;0.48;68.51
78117;BME280;69042;59.120;37.904;2023-10-31T04:42:21;99675.03;;;0.48;68.32
78117;BME280;69042;59.120;37.904;2023-10-31T04:44:48;99672.47;;;0.48;68.91
78117;BME280;69042;59.120;37.904;2023-10-31T04:47:15;99678.47;;;0.48;68.61
78117;BME280;69042;59.120;37.904;2023-10-31T04:49:41;99686.16;;;0.50;68.94
78117;BME280;69042;59.120;37.904;2023-10-31T04:52:07;99688.69;;;0.51;68.82
78117;BME280;69042;59.120;37.904;2023-10-31T04:54:34;99685.25;;;0.54;68.56
78117;BME280;69042;59.120;37.904;2023-10-31T04:57:00;99683.53;;;0.56;68.81
78117;BME280;69042;59.120;37.904;2023-10-31T04:59:27;99680.94;;;0.56;68.62
78117;BME280;69042;59.120;37.904;2023-10-31T05:01:53;99681.78;;;0.58;68.70
78117;BME280;69042;59.120;37.904;2023-10-31T05:04:21;99673.25;;;0.57;69.08
78117;BME280;69042;59.120;37.904;2023-10-31T05:06:47;99668.94;;;0.59;68.82
78117;BME280;69042;59.120;37.904;2023-10-31T05:09:15;99682.59;;;0.63;68.91
78117;BME280;69042;59.120;37.904;2023-10-31T05:11:41;99692.88;;;0.66;69.23
78117;BME280;69042;59.120;37.904;2023-10-31T05:14:09;99697.97;;;0.69;69.34
78117;BME280;69042;59.120;37.904;2023-10-31T05:16:43;99692.84;;;0.72;69.11
78117;BME280;69042;59.120;37.904;2023-10-31T05:19:10;99709.09;;;0.73;68.66
78117;BME280;69042;59.120;37.904;2023-10-31T05:21:36;99711.69;;;0.71;68.54
78117;BME280;69042;59.120;37.904;2023-10-31T05:24:03;99702.31;;;0.66;68.57
78117;BME280;69042;59.120;37.904;2023-10-31T05:26:29;99707.50;;;0.59;68.76
78117;BME280;69042;59.120;37.904;2023-10-31T05:28:56;99709.22;;;0.57;68.53
78117;BME280;69042;59.120;37.904;2023-10-31T05:31:24;99718.66;;;0.57;68.56
78117;BME280;69042;59.120;37.904;2023-10-31T05:33:52;99727.22;;;0.56;69.01
78117;BME280;69042;59.120;37.904;2023-10-31T05:36:22;99727.22;;;0.57;68.73
78117;BME280;69042;59.120;37.904;2023-10-31T05:38:49;99724.63;;;0.60;68.83
78117;BME280;69042;59.120;37.904;2023-10-31T05:41:16;99737.47;;;0.64;69.19
78117;BME280;69042;59.120;37.904;2023-10-31T05:43:42;99735.72;;;0.69;69.05
78117;BME280;69042;59.120;37.904;2023-10-31T05:46:08;99735.69;;;0.70;68.93
78117;BME280;69042;59.120;37.904;2023-10-31T05:48:43;99740.84;;;0.70;69.15
78117;BME280;69042;59.120;37.904;2023-10-31T05:51:14;99756.28;;;0.69;68.74
78117;BME280;69042;59.120;37.904;2023-10-31T05:53:41;99772.53;;;0.72;69.09
78117;BME280;69042;59.120;37.904;2023-10-31T05:56:09;99773.34;;;0.76;69.39
78117;BME280;69042;59.120;37.904;2023-10-31T05:58:37;99781.88;;;0.81;68.73
78117;BME280;69042;59.120;37.904;2023-10-31T06:01:04;99786.19;;;0.82;68.37
78117;BME280;69042;59.120;37.904;2023-10-31T06:03:32;99799.88;;;0.81;69.01
78117;BME280;69042;59.120;37.904;2023-10-31T06:05:58;99803.34;;;0.78;68.15
78117;BME280;69042;59.120;37.904;2023-10-31T06:08:25;99819.66;;;0.79;68.72
78117;BME280;69042;59.120;37.904;2023-10-31T06:10:59;99834.22;;;0.75;68.66
78117;BME280;69042;59.120;37.904;2023-10-31T06:13:26;99842.78;;;0.77;69.48
78117;BME280;69042;59.120;37.904;2023-10-31T06:15:54;99841.03;;;0.82;69.04
78117;BME280;69042;59.120;37.904;2023-10-31T06:18:20;99837.53;;;0.91;68.66
78117;BME280;69042;59.120;37.904;2023-10-31T06:20:47;99842.59;;;1.03;69.67
78117;BME280;69042;59.120;37.904;2023-10-31T06:23:13;99853.63;;;1.19;69.63
78117;BME280;69042;59.120;37.904;2023-10-31T06:25:39;99859.47;;;1.38;69.47
78117;BME280;69042;59.120;37.904;2023-10-31T06:28:06;99852.47;;;1.54;69.78
78117;BME280;69042;59.120;37.904;2023-10-31T06:30:32;99835.13;;;1.69;69.58
78117;BME280;69042;59.120;37.904;2023-10-31T06:32:58;99826.41;;;1.83;69.75
78117;BME280;69042;59.120;37.904;2023-10-31T06:35:26;99815.03;;;2.00;69.87
78117;BME280;69042;59.120;37.904;2023-10-31T06:37:55;99809.72;;;2.15;69.52
78117;BME280;69042;59.120;37.904;2023-10-31T06:40:25;99813.84;;;2.28;69.85
78117;BME280;69042;59.120;37.904;2023-10-31T06:42:52;99827.44;;;2.40;69.41
78117;BME280;69042;59.120;37.904;2023-10-31T06:45:18;99827.38;;;2.46;69.03
78117;BME280;69042;59.120;37.904;2023-10-31T06:47:46;99813.53;;;2.52;69.00
78117;BME280;69042;59.120;37.904;2023-10-31T06:50:12;99823.75;;;2.58;68.58
78117;BME280;69042;59.120;37.904;2023-10-31T06:52:38;99831.41;;;2.64;68.63
78117;BME280;69042;59.120;37.904;2023-10-31T06:55:05;99839.09;;;2.67;68.90
78117;BME280;69042;59.120;37.904;2023-10-31T06:57:31;99851.09;;;2.71;68.31
78117;BME280;69042;59.120;37.904;2023-10-31T06:59:58;99852.75;;;2.74;68.54
78117;BME280;69042;59.120;37.904;2023-10-31T07:02:24;99855.34;;;2.74;68.03
78117;BME280;69042;59.120;37.904;2023-10-31T07:04:52;99861.41;;;2.73;67.94
78117;BME280;69042;59.120;37.904;2023-10-31T07:07:18;99864.81;;;2.71;67.55
78117;BME280;69042;59.120;37.904;2023-10-31T07:09:44;99868.38;;;2.66;67.05
78117;BME280;69042;59.120;37.904;2023-10-31T07:12:11;99888.25;;;2.58;66.65
78117;BME280;69042;59.120;37.904;2023-10-31T07:14:37;99884.94;;;2.46;66.96
78117;BME280;69042;59.120;37.904;2023-10-31T07:17:03;99893.66;;;2.38;67.08
78117;BME280;69042;59.120;37.904;2023-10-31T07:19:30;99892.84;;;2.33;67.14
78117;BME280;69042;59.120;37.904;2023-10-31T07:21:56;99902.31;;;2.32;67.27
78117;BME280;69042;59.120;37.904;2023-10-31T07:24:22;99907.47;;;2.32;67.34
78117;BME280;69042;59.120;37.904;2023-10-31T07:26:49;99912.53;;;2.38;67.43
78117;BME280;69042;59.120;37.904;2023-10-31T07:29:15;99912.47;;;2.43;67.38
78117;BME280;69042;59.120;37.904;2023-10-31T07:31:41;99913.19;;;2.54;67.61
78117;BME280;69042;59.120;37.904;2023-10-31T07:34:08;99911.38;;;2.64;68.06
78117;BME280;69042;59.120;37.904;2023-10-31T07:36:37;99909.53;;;2.74;68.16
78117;BME280;69042;59.120;37.904;2023-10-31T07:39:03;99918.84;;;2.84;68.06
78117;BME280;69042;59.120;37.904;2023-10-31T07:41:30;99915.25;;;2.94;68.11
78117;BME280;69042;59.120;37.904;2023-10-31T07:43:56;99916.72;;;3.10;68.24
78117;BME280;69042;59.120;37.904;2023-10-31T07:46:23;99912.25;;;3.25;67.98
78117;BME280;69042;59.120;37.904;2023-10-31T07:48:49;99929.19;;;3.40;68.33
78117;BME280;69042;59.120;37.904;2023-10-31T07:51:15;99932.38;;;3.55;67.85
78117;BME280;69042;59.120;37.904;2023-10-31T07:53:42;99935.63;;;3.70;67.35
78117;BME280;69042;59.120;37.904;2023-10-31T07:56:18;99939.69;;;3.83;67.45
78117;BME280;69042;59.120;37.904;2023-10-31T07:58:49;99935.13;;;3.97;66.92
78117;BME280;69042;59.120;37.904;2023-10-31T08:01:19;99949.66;;;4.05;66.21
78117;BME280;69042;59.120;37.904;2023-10-31T08:03:46;99947.91;;;4.05;66.01
78117;BME280;69042;59.120;37.904;2023-10-31T08:06:15;99938.38;;;4.07;66.18
78117;BME280;69042;59.120;37.904;2023-10-31T08:08:43;99938.31;;;4.12;65.96
78117;BME280;69042;59.120;37.904;2023-10-31T08:11:10;99940.78;;;4.18;66.17
78117;BME280;69042;59.120;37.904;2023-10-31T08:13:37;99951.03;;;4.23;65.71
78117;BME280;69042;59.120;37.904;2023-10-31T08:16:05;99957.03;;;4.26;65.55
78117;BME280;69042;59.120;37.904;2023-10-31T08:18:32;99963.03;;;4.28;65.55
78117;BME280;69042;59.120;37.904;2023-10-31T08:20:59;99970.78;;;4.28;65.35
78117;BME280;69042;59.120;37.904;2023-10-31T08:23:25;99970.81;;;4.25;65.28
78117;BME280;69042;59.120;37.904;2023-10-31T08:25:53;99975.22;;;4.20;64.67
78117;BME280;69042;59.120;37.904;2023-10-31T08:28:20;99973.66;;;4.11;64.80
78117;BME280;69042;59.120;37.904;2023-10-31T08:30:46;99980.59;;;4.09;64.76
78117;BME280;69042;59.120;37.904;2023-10-31T08:33:13;99980.66;;;4.05;65.07
78117;BME280;69042;59.120;37.904;2023-10-31T08:35:42;99979.81;;;4.04;65.13
78117;BME280;69042;59.120;37.904;2023-10-31T08:38:09;99977.91;;;4.14;64.89
78117;BME280;69042;59.120;37.904;2023-10-31T08:40:35;99979.50;;;4.23;64.83
78117;BME280;69042;59.120;37.904;2023-10-31T08:43:01;99981.00;;;4.34;65.43
78117;BME280;69042;59.120;37.904;2023-10-31T08:45:30;99985.94;;;4.47;64.53
78117;BME280;69042;59.120;37.904;2023-10-31T08:47:56;99987.50;;;4.55;65.03
78117;BME280;69042;59.120;37.904;2023-10-31T08:50:22;99982.34;;;4.55;65.02
78117;BME280;69042;59.120;37.904;2023-10-31T08:52:49;99985.75;;;4.56;64.58
78117;BME280;69042;59.120;37.904;2023-10-31T08:55:15;99983.19;;;4.54;64.51
78117;BME280;69042;59.120;37.904;2023-10-31T08:57:41;99991.84;;;4.53;64.42
78117;BME280;69042;59.120;37.904;2023-10-31T09:00:08;99991.03;;;4.51;64.44
78117;BME280;69042;59.120;37.904;2023-10-31T09:02:35;99997.91;;;4.52;64.34
78117;BME280;69042;59.120;37.904;2023-10-31T09:05:02;100001.31;;;4.54;64.61
78117;BME280;69042;59.120;37.904;2023-10-31T09:07:28;100002.13;;;4.58;64.22
78117;BME280;69042;59.120;37.904;2023-10-31T09:09:54;100009.63;;;4.70;64.82
78117;BME280;69042;59.120;37.904;2023-10-31T09:12:21;100009.38;;;4.84;64.64
78117;BME280;69042;59.120;37.904;2023-10-31T09:14:47;100010.91;;;4.93;64.48
78117;BME280;69042;59.120;37.904;2023-10-31T09:17:13;100011.69;;;4.98;64.10
78117;BME280;69042;59.120;37.904;2023-10-31T09:19:40;100011.59;;;5.01;64.19
78117;BME280;69042;59.120;37.904;2023-10-31T09:22:06;100004.66;;;5.03;64.01
78117;BME280;69042;59.120;37.904;2023-10-31T09:24:33;99995.97;;;5.06;63.59
78117;BME280;69042;59.120;37.904;2023-10-31T09:26:59;99993.25;;;5.12;63.83
78117;BME280;69042;59.120;37.904;2023-10-31T09:29:27;100000.97;;;5.13;63.77
78117;BME280;69042;59.120;37.904;2023-10-31T09:31:53;99994.91;;;5.14;63.46
78117;BME280;69042;59.120;37.904;2023-10-31T09:34:20;100002.63;;;5.17;63.59
78117;BME280;69042;59.120;37.904;2023-10-31T09:36:46;99990.53;;;5.18;63.31
78117;BME280;69042;59.120;37.904;2023-10-31T09:39:12;99988.81;;;5.17;63.14
78117;BME280;69042;59.120;37.904;2023-10-31T09:41:39;99976.59;;;5.22;63.20
78117;BME280;69042;59.120;37.904;2023-10-31T09:44:06;99981.75;;;5.25;63.13
78117;BME280;69042;59.120;37.904;2023-10-31T09:46:33;99990.25;;;5.30;63.00
78117;BME280;69042;59.120;37.904;2023-10-31T09:49:00;99989.31;;;5.34;63.12
78117;BME280;69042;59.120;37.904;2023-10-31T09:51:27;99987.47;;;5.38;62.72
78117;BME280;69042;59.120;37.904;2023-10-31T09:53:55;99985.66;;;5.43;62.77
78117;BME280;69042;59.120;37.904;2023-10-31T09:56:23;99973.44;;;5.48;62.73
78117;BME280;69042;59.120;37.904;2023-10-31T09:58:51;99973.41;;;5.50;62.27
78117;BME280;69042;59.120;37.904;2023-10-31T10:01:17;99966.63;;;5.44;62.51
78117;BME280;69042;59.120;37.904;2023-10-31T10:03:44;99967.53;;;5.41;62.27
78117;BME280;69042;59.120;37.904;2023-10-31T10:06:11;99972.84;;;5.35;62.00
78117;BME280;69042;59.120;37.904;2023-10-31T10:08:38;99976.41;;;5.31;62.17
78117;BME280;69042;59.120;37.904;2023-10-31T10:11:05;99978.19;;;5.29;61.78
78117;BME280;69042;59.120;37.904;2023-10-31T10:13:32;99979.16;;;5.24;61.69
78117;BME280;69042;59.120;37.904;2023-10-31T10:15:59;99989.81;;;5.11;61.34
78117;BME280;69042;59.120;37.904;2023-10-31T10:18:31;99996.06;;;5.01;61.70
78117;BME280;69042;59.120;37.904;2023-10-31T10:21:04;99996.19;;;4.95;61.70
78117;BME280;69042;59.120;37.904;2023-10-31T10:23:32;99993.75;;;4.89;61.65
78117;BME280;69042;59.120;37.904;2023-10-31T10:26:00;99996.47;;;4.83;61.76
78117;BME280;69042;59.120;37.904;2023-10-31T10:28:26;99995.59;;;4.82;62.02
78117;BME280;69042;59.120;37.904;2023-10-31T10:30:53;99994.63;;;4.88;62.17
78117;BME280;69042;59.120;37.904;2023-10-31T10:33:22;99996.34;;;4.87;62.00
78117;BME280;69042;59.120;37.904;2023-10-31T10:35:49;99997.28;;;4.85;61.90
78117;BME280;69042;59.120;37.904;2023-10-31T10:38:17;99995.53;;;4.85;62.05
78117;BME280;69042;59.120;37.904;2023-10-31T10:40:48;99999.66;;;4.95;62.24
78117;BME280;69042;59.120;37.904;2023-10-31T10:43:23;99997.63;;;5.10;62.46
78117;BME280;69042;59.120;37.904;2023-10-31T10:45:55;100002.47;;;5.25;62.16
78117;BME280;69042;59.120;37.904;2023-10-31T10:48:25;100004.81;;;5.36;62.07
78117;BME280;69042;59.120;37.904;2023-10-31T10:51:11;100006.44;;;5.40;61.39
78117;BME280;69042;59.120;37.904;2023-10-31T10:53:51;100018.50;;;5.41;61.11
78117;BME280;69042;59.120;37.904;2023-10-31T10:56:26;100016.13;;;5.32;61.18
78117;BME280;69042;59.120;37.904;2023-10-31T11:01:21;100019.06;;;5.16;60.94
78117;BME280;69042;59.120;37.904;2023-10-31T11:03:48;100017.47;;;5.09;61.10
78117;BME280;69042;59.120;37.904;2023-10-31T11:06:15;100027.84;;;5.09;61.18
78117;BME280;69042;59.120;37.904;2023-10-31T11:08:42;100029.59;;;5.07;61.18
78117;BME280;69042;59.120;37.904;2023-10-31T11:11:09;100035.72;;;5.03;61.03
78117;BME280;69042;59.120;37.904;2023-10-31T11:13:36;100029.91;;;4.92;60.96
78117;BME280;69042;59.120;37.904;2023-10-31T11:16:11;100045.66;;;4.81;60.94
78117;BME280;69042;59.120;37.904;2023-10-31T11:18:39;100043.34;;;4.67;60.76
78117;BME280;69042;59.120;37.904;2023-10-31T11:21:07;100031.59;;;4.51;60.89
78117;BME280;69042;59.120;37.904;2023-10-31T11:23:33;100038.72;;;4.38;61.05
78117;BME280;69042;59.120;37.904;2023-10-31T11:26:00;100031.97;;;4.28;60.92
78117;BME280;69042;59.120;37.904;2023-10-31T11:28:26;100026.94;;;4.22;61.40
78117;BME280;69042;59.120;37.904;2023-10-31T11:30:53;100027.78;;;4.22;61.79
78117;BME280;69042;59.120;37.904;2023-10-31T11:33:25;100021.63;;;4.28;61.55
78117;BME280;69042;59.120;37.904;2023-10-31T11:36:03;100018.94;;;4.34;61.81
78117;BME280;69042;59.120;37.904;2023-10-31T11:38:37;100023.13;;;4.41;61.98
78117;BME280;69042;59.120;37.904;2023-10-31T11:41:04;100027.34;;;4.47;62.28
78117;BME280;69042;59.120;37.904;2023-10-31T11:46:26;100026.13;;;4.66;62.20
78117;BME280;69042;59.120;37.904;2023-10-31T11:48:55;100029.44;;;4.73;62.18
78117;BME280;69042;59.120;37.904;2023-10-31T11:51:22;100033.63;;;4.80;62.09
78117;BME280;69042;59.120;37.904;2023-10-31T11:53:49;100031.03;;;4.80;61.97
78117;BME280;69042;59.120;37.904;2023-10-31T11:56:22;100041.50;;;4.74;61.93
78117;BME280;69042;59.120;37.904;2023-10-31T11:59:01;100045.09;;;4.67;61.71
78117;BME280;69042;59.120;37.904;2023-10-31T12:01:28;100056.38;;;4.61;61.76
78117;BME280;69042;59.120;37.904;2023-10-31T12:03:54;100047.06;;;4.52;61.57
78117;BME280;69042;59.120;37.904;2023-10-31T12:06:21;100062.72;;;4.46;61.48
78117;BME280;69042;59.120;37.904;2023-10-31T12:08:48;100065.47;;;4.35;61.53
78117;BME280;69042;59.120;37.904;2023-10-31T12:11:15;100073.25;;;4.34;61.52
78117;BME280;69042;59.120;37.904;2023-10-31T12:16:18;100065.41;;;4.38;61.72
78117;BME280;69042;59.120;37.904;2023-10-31T12:18:44;100059.47;;;4.33;61.93
78117;BME280;69042;59.120;37.904;2023-10-31T12:21:10;100070.81;;;4.26;61.23
78117;BME280;69042;59.120;37.904;2023-10-31T12:23:40;100066.75;;;4.11;61.04
78117;BME280;69042;59.120;37.904;2023-10-31T12:26:07;100068.69;;;3.99;61.47
78117;BME280;69042;59.120;37.904;2023-10-31T12:28:33;100073.19;;;3.86;61.42
78117;BME280;69042;59.120;37.904;2023-10-31T12:31:02;100072.53;;;3.71;60.92
78117;BME280;69042;59.120;37.904;2023-10-31T12:33:28;100073.59;;;3.58;61.05
78117;BME280;69042;59.120;37.904;2023-10-31T12:36:01;100078.06;;;3.47;61.40
78117;BME280;69042;59.120;37.904;2023-10-31T12:38:28;100075.63;;;3.36;62.03
78117;BME280;69042;59.120;37.904;2023-10-31T12:40:55;100075.75;;;3.25;61.66
78117;BME280;69042;59.120;37.904;2023-10-31T12:43:23;100068.97;;;3.17;61.74
78117;BME280;69042;59.120;37.904;2023-10-31T12:45:49;100076.88;;;3.04;61.94
78117;BME280;69042;59.120;37.904;2023-10-31T12:48:16;100075.28;;;2.92;61.73
78117;BME280;69042;59.120;37.904;2023-10-31T12:50:42;100062.53;;;2.79;61.25
78117;BME280;69042;59.120;37.904;2023-10-31T12:53:08;100052.38;;;2.63;62.25
78117;BME280;69042;59.120;37.904;2023-10-31T12:55:42;100059.38;;;2.54;62.39
78117;BME280;69042;59.120;37.904;2023-10-31T12:58:09;100068.88;;;2.48;62.34
78117;BME280;69042;59.120;37.904;2023-10-31T13:00:36;100076.63;;;2.45;63.06
78117;BME280;69042;59.120;37.904;2023-10-31T13:03:05;100099.84;;;2.47;63.08
78117;BME280;69042;59.120;37.904;2023-10-31T13:05:32;100111.00;;;2.50;62.79